FRE weather

Fera/Maringe Airport
Fera Island, Isabel, Solomon Islands

Public forecast

Using degrees Celsius for public forecast. Weather courtesy of forecast.io.

METAR (pilot weather report)

Closest report is Honiara International Airport, 84.2 nm (155.9 km) SSE. Retrieved 2019/09/15 08:00 UTC (40 minutes ago):

AGGH 150800Z 11003KT 9999 FEW017 BKN100 OVC300 27/23 Q1013

TAF (pilot weather forecast)

Forecast is more than 12 hours old.

Closest forecast is Gwaunaru'u Airport, 74.7 nm (138.4 km) ESE. Retrieved 2019/04/06 00:10 UTC (5 months ago):

TAF AGGA 062310Z 0700/0724 18010KT 9999 SCT019 PROB40 INTER 0701/0706 5000 TSSH BKN016 FEW017CB